Time;durP1;ratioP1;P1;durP2;ratioP2;P2;SDS_P1;SDS_P2;PMS_P1;PMS_P2;Temp;Humidity;BMP_temperature;BMP_pressure;BME280_temperature;BME280_humidity;BME280_pressure;Samples;Min_cycle;Max_cycle;Signal;HPM_P1;HPM_P2
2022/11/28 00:01:55;;;;;;;19.83;15.60;;;11.00;1.00;;;;;;5016671;28;20124;-61
2022/11/28 00:04:21;;;;;;;17.25;14.32;;;11.00;1.00;;;;;;5011902;28;20024;-62
2022/11/28 00:06:50;;;;;;;17.48;14.48;;;11.00;1.00;;;;;;5025430;28;20048;-61
2022/11/28 00:09:17;;;;;;;18.10;14.38;;;11.00;1.00;;;;;;5029973;28;20022;-62
2022/11/28 00:11:45;;;;;;;16.83;15.02;;;11.00;1.00;;;;;;5015087;28;20144;-62
2022/11/28 00:14:11;;;;;;;18.00;15.23;;;11.00;1.00;;;;;;5009815;28;20460;-62
2022/11/28 00:16:37;;;;;;;17.30;14.55;;;11.10;1.00;;;;;;5026800;28;20025;-62
2022/11/28 00:19:05;;;;;;;17.42;14.70;;;11.10;1.00;;;;;;5029121;28;20036;-62
2022/11/28 00:21:31;;;;;;;18.55;14.70;;;11.10;1.00;;;;;;5011106;28;20025;-62
2022/11/28 00:23:58;;;;;;;18.05;15.25;;;11.10;1.00;;;;;;5030894;28;20029;-62
2022/11/28 00:26:30;;;;;;;16.80;14.65;;;11.00;1.00;;;;;;5023574;28;20026;-62
2022/11/28 00:28:57;;;;;;;18.85;14.52;;;11.00;1.00;;;;;;5025118;28;20493;-62
2022/11/28 00:31:24;;;;;;;16.67;14.88;;;10.90;1.00;;;;;;4999248;28;20026;-62
2022/11/28 00:33:50;;;;;;;18.17;15.57;;;10.90;1.00;;;;;;5031035;28;20558;-62
2022/11/28 00:36:16;;;;;;;17.85;14.90;;;10.90;1.00;;;;;;5027970;28;20205;-62
2022/11/28 00:38:43;;;;;;;19.15;15.77;;;11.00;1.00;;;;;;5010308;28;20032;-62
2022/11/28 00:41:13;;;;;;;20.20;15.35;;;11.00;1.00;;;;;;5055994;28;20034;-62
2022/11/28 00:43:40;;;;;;;18.95;15.10;;;11.00;1.00;;;;;;5015597;28;20384;-62
2022/11/28 00:46:06;;;;;;;17.30;14.93;;;10.90;1.00;;;;;;5022315;28;20037;-62
2022/11/28 00:48:33;;;;;;;15.90;14.10;;;10.90;1.00;;;;;;5009931;28;20057;-62
2022/11/28 00:51:14;;;;;;;20.02;15.38;;;10.90;1.00;;;;;;5013629;28;20022;-62
2022/11/28 00:53:42;;;;;;;17.25;15.30;;;10.70;1.00;;;;;;5011122;28;20153;-62
2022/11/28 00:56:09;;;;;;;24.23;15.13;;;10.90;1.00;;;;;;5009607;28;20018;-62
2022/11/28 00:58:36;;;;;;;17.02;14.30;;;10.70;1.00;;;;;;5009487;28;20029;-61
2022/11/28 01:01:22;;;;;;;20.73;15.73;;;10.90;1.00;;;;;;5016739;28;20033;-62
2022/11/28 01:03:49;;;;;;;18.05;14.70;;;10.90;1.00;;;;;;5019789;28;20038;-61
2022/11/28 01:06:46;;;;;;;18.20;15.10;;;10.90;1.00;;;;;;5018213;28;20423;-62
2022/11/28 01:09:20;;;;;;;19.15;15.40;;;10.90;1.00;;;;;;4995910;28;20030;-62
2022/11/28 01:11:50;;;;;;;17.58;14.68;;;10.90;1.00;;;;;;5013769;28;20079;-62
2022/11/28 01:14:18;;;;;;;18.05;14.98;;;11.00;1.00;;;;;;5014339;28;20037;-62
2022/11/28 01:16:44;;;;;;;18.20;15.00;;;10.90;1.00;;;;;;5014955;28;20033;-62
2022/11/28 01:19:10;;;;;;;21.27;15.93;;;11.00;1.00;;;;;;5023571;28;20025;-62
2022/11/28 01:21:36;;;;;;;22.17;16.40;;;11.00;1.00;;;;;;5014117;28;20113;-62
2022/11/28 01:24:02;;;;;;;21.35;15.50;;;10.90;1.00;;;;;;5018564;28;20397;-62
2022/11/28 01:26:40;;;;;;;19.90;15.18;;;11.00;1.00;;;;;;5012937;28;20022;-62
2022/11/28 01:29:07;;;;;;;17.25;15.07;;;11.00;1.00;;;;;;5033732;28;20413;-62
2022/11/28 01:31:33;;;;;;;21.13;15.95;;;10.90;1.00;;;;;;5012258;28;20032;-62
2022/11/28 01:33:59;;;;;;;17.38;15.40;;;11.00;1.00;;;;;;5001771;28;20034;-60
2022/11/28 01:36:25;;;;;;;17.00;14.88;;;11.00;1.00;;;;;;5005437;28;20026;-60
2022/11/28 01:38:51;;;;;;;17.83;15.25;;;10.90;1.00;;;;;;5012350;28;20045;-60
2022/11/28 01:41:19;;;;;;;18.42;16.30;;;10.90;1.00;;;;;;5015902;28;20030;-60
2022/11/28 01:43:59;;;;;;;19.05;15.93;;;10.80;1.00;;;;;;5010277;28;20065;-61
2022/11/28 01:46:25;;;;;;;20.88;15.48;;;10.90;1.00;;;;;;5015726;28;20476;-61
2022/11/28 01:48:53;;;;;;;17.75;15.32;;;10.90;1.00;;;;;;5024321;28;20050;-61
2022/11/28 01:51:19;;;;;;;17.15;15.25;;;10.90;1.00;;;;;;5019223;28;20040;-62
2022/11/28 01:53:47;;;;;;;19.85;16.27;;;10.90;1.00;;;;;;5013733;28;20026;-62
2022/11/28 01:56:17;;;;;;;20.83;15.43;;;10.90;1.00;;;;;;5015738;28;20061;-62
2022/11/28 01:58:47;;;;;;;17.67;15.60;;;10.80;1.00;;;;;;5027758;28;20022;-62
2022/11/28 02:01:14;;;;;;;17.05;14.70;;;10.90;1.00;;;;;;5024457;28;20512;-62
2022/11/28 02:03:45;;;;;;;17.80;14.65;;;10.90;1.00;;;;;;5013353;28;20147;-62
2022/11/28 02:06:13;;;;;;;18.50;14.48;;;10.90;1.00;;;;;;5015228;28;20110;-62
2022/11/28 02:08:39;;;;;;;17.83;15.05;;;10.90;1.00;;;;;;5012409;28;20034;-62
2022/11/28 02:11:23;;;;;;;17.77;15.48;;;10.90;1.00;;;;;;5013654;28;20034;-62
2022/11/28 02:13:57;;;;;;;15.90;13.83;;;10.80;1.00;;;;;;5002807;28;20022;-62
2022/11/28 02:16:53;;;;;;;18.08;14.88;;;10.80;1.00;;;;;;5018905;28;20322;-62
2022/11/28 02:19:51;;;;;;;17.00;14.05;;;10.70;1.00;;;;;;5014135;28;20030;-62
2022/11/28 02:22:29;;;;;;;16.50;14.52;;;10.80;1.00;;;;;;4998531;28;20038;-62
2022/11/28 02:24:57;;;;;;;17.58;14.13;;;10.80;1.00;;;;;;5011356;28;20034;-61
2022/11/28 02:28:04;;;;;;;17.92;14.35;;;10.80;1.00;;;;;;5009915;28;20042;-60
2022/11/28 02:30:52;;;;;;;15.77;13.60;;;10.90;1.00;;;;;;4937061;29;20058;-60
2022/11/28 02:33:32;;;;;;;16.55;13.93;;;10.70;1.00;;;;;;5006559;28;20432;-61
2022/11/28 02:36:19;;;;;;;18.00;14.27;;;10.80;1.00;;;;;;5012890;28;20026;-61
2022/11/28 02:39:06;;;;;;;17.27;14.32;;;10.80;1.00;;;;;;5011865;28;20038;-61
2022/11/28 02:41:56;;;;;;;19.52;14.73;;;10.80;1.00;;;;;;5000983;28;20034;-61
2022/11/28 02:44:30;;;;;;;18.25;14.20;;;10.80;1.00;;;;;;5015223;28;20033;-61
2022/11/28 02:47:09;;;;;;;14.52;13.05;;;10.80;1.00;;;;;;5024350;28;20167;-61
2022/11/28 02:49:37;;;;;;;17.20;14.13;;;10.80;1.00;;;;;;5016356;28;20112;-61
2022/11/28 02:52:08;;;;;;;18.30;14.50;;;10.70;1.00;;;;;;5013396;28;20038;-61
2022/11/28 02:54:37;;;;;;;16.55;13.02;;;10.80;1.00;;;;;;5018122;28;20068;-61
2022/11/28 02:57:02;;;;;;;16.50;14.02;;;10.80;1.00;;;;;;5011819;28;20095;-61
2022/11/28 02:59:45;;;;;;;15.15;13.50;;;10.80;1.00;;;;;;5007204;28;20021;-61
2022/11/28 03:02:27;;;;;;;16.27;13.52;;;10.80;1.00;;;;;;5013558;28;20058;-61
2022/11/28 03:05:16;;;;;;;15.38;12.70;;;10.80;1.00;;;;;;5013910;28;20064;-61
2022/11/28 03:08:00;;;;;;;16.02;12.93;;;10.80;1.00;;;;;;5016251;28;20026;-61
2022/11/28 03:10:49;;;;;;;16.55;13.05;;;10.80;1.00;;;;;;5018352;28;20041;-61
2022/11/28 03:13:18;;;;;;;19.13;13.43;;;10.80;1.00;;;;;;5031893;28;20036;-61
2022/11/28 03:15:52;;;;;;;14.93;12.70;;;10.90;1.00;;;;;;5022034;28;20030;-61
2022/11/28 03:18:38;;;;;;;16.42;12.80;;;10.80;1.00;;;;;;5014311;28;20049;-61
2022/11/28 03:21:42;;;;;;;14.70;13.10;;;10.80;1.00;;;;;;5017055;28;20072;-61
2022/11/28 03:24:22;;;;;;;16.70;13.32;;;10.70;1.00;;;;;;4968929;28;20047;-62
2022/11/28 03:26:55;;;;;;;15.95;12.88;;;10.70;1.00;;;;;;5017948;28;20037;-62
2022/11/28 03:29:51;;;;;;;15.25;13.10;;;10.70;1.00;;;;;;5012496;28;20030;-62
2022/11/28 03:32:29;;;;;;;17.13;13.68;;;10.80;1.00;;;;;;5009843;28;20030;-62
2022/11/28 03:35:16;;;;;;;16.15;13.95;;;10.80;1.00;;;;;;5010450;28;20038;-62
2022/11/28 03:38:07;;;;;;;15.82;13.23;;;10.80;1.00;;;;;;5005588;28;20038;-62
2022/11/28 03:40:41;;;;;;;15.75;13.50;;;10.80;1.00;;;;;;5024529;28;20530;-61
2022/11/28 03:43:22;;;;;;;15.02;13.52;;;10.80;1.00;;;;;;5009300;28;20125;-62
2022/11/28 03:45:52;;;;;;;14.68;13.13;;;10.80;1.00;;;;;;5013184;28;20445;-62
2022/11/28 03:48:24;;;;;;;18.70;13.77;;;10.80;1.00;;;;;;5019192;28;20112;-62
2022/11/28 03:50:57;;;;;;;16.27;14.10;;;10.80;1.00;;;;;;5018338;28;20034;-62
2022/11/28 03:53:35;;;;;;;18.85;14.68;;;10.80;1.00;;;;;;5016775;28;20030;-62
2022/11/28 03:56:14;;;;;;;17.35;14.43;;;10.70;1.00;;;;;;5018031;28;20033;-62
2022/11/28 03:58:52;;;;;;;16.17;13.73;;;10.80;1.00;;;;;;5010721;28;20029;-62
2022/11/28 04:01:23;;;;;;;14.98;13.48;;;10.80;1.00;;;;;;5007844;28;20026;-62
2022/11/28 04:04:10;;;;;;;18.83;14.13;;;10.80;1.00;;;;;;5010963;28;20100;-62
2022/11/28 04:06:57;;;;;;;17.83;14.40;;;10.80;1.00;;;;;;5009264;28;20049;-62
2022/11/28 04:09:31;;;;;;;15.30;13.50;;;10.80;1.00;;;;;;5013908;28;20439;-62
2022/11/28 04:12:12;;;;;;;19.25;13.45;;;10.80;1.00;;;;;;5025386;28;20091;-62
2022/11/28 04:14:58;;;;;;;16.23;14.20;;;10.80;1.00;;;;;;5009800;28;20100;-61
2022/11/28 04:17:34;;;;;;;18.58;14.93;;;10.90;1.00;;;;;;5011264;28;20034;-61
2022/11/28 04:20:11;;;;;;;15.65;13.90;;;10.80;1.00;;;;;;5005967;28;20053;-61
2022/11/28 04:22:52;;;;;;;19.30;15.48;;;10.90;1.00;;;;;;5009731;28;20120;-61
2022/11/28 04:25:21;;;;;;;16.50;14.75;;;10.90;1.00;;;;;;5014323;28;20378;-62
2022/11/28 04:27:52;;;;;;;16.67;14.77;;;10.80;1.00;;;;;;5008744;28;20108;-62
2022/11/28 04:30:17;;;;;;;15.35;13.48;;;10.90;1.00;;;;;;5024043;28;20064;-62
2022/11/28 04:32:49;;;;;;;17.05;14.40;;;10.90;1.00;;;;;;5011189;28;20061;-63
2022/11/28 04:35:24;;;;;;;19.92;14.23;;;10.90;1.00;;;;;;5015492;28;20498;-62
2022/11/28 04:37:52;;;;;;;18.00;14.45;;;10.90;1.00;;;;;;5021253;28;20117;-62
2022/11/28 04:40:21;;;;;;;18.80;15.02;;;10.90;1.00;;;;;;5012426;28;20088;-61
2022/11/28 04:42:54;;;;;;;22.23;15.98;;;10.90;1.00;;;;;;5013316;28;20076;-61
2022/11/28 04:45:41;;;;;;;20.83;16.15;;;10.90;1.00;;;;;;5013480;28;20037;-61
2022/11/28 04:48:07;;;;;;;19.88;15.95;;;10.90;1.00;;;;;;5012045;28;20046;-62
2022/11/28 04:50:47;;;;;;;19.33;16.02;;;10.80;1.00;;;;;;5014433;28;20113;-62
2022/11/28 04:53:23;;;;;;;19.67;16.60;;;10.80;1.00;;;;;;5008274;28;20522;-61
2022/11/28 04:55:56;;;;;;;21.88;16.10;;;10.80;1.00;;;;;;5009626;28;20029;-61
2022/11/28 04:58:39;;;;;;;22.35;17.92;;;10.90;1.00;;;;;;5014349;28;20026;-61
2022/11/28 05:01:08;;;;;;;20.60;16.55;;;10.90;1.00;;;;;;5014419;28;20484;-61
2022/11/28 05:03:34;;;;;;;18.73;16.67;;;10.80;1.00;;;;;;5012720;28;20049;-61
2022/11/28 05:06:26;;;;;;;17.55;15.65;;;10.80;1.00;;;;;;5013328;28;20077;-61
2022/11/28 05:08:52;;;;;;;26.30;16.90;;;10.80;1.00;;;;;;5042232;28;20041;-61
2022/11/28 05:11:17;;;;;;;19.88;16.45;;;10.90;1.00;;;;;;5013488;28;20022;-61
2022/11/28 05:13:43;;;;;;;20.40;15.95;;;10.90;1.00;;;;;;5020891;28;20484;-61
2022/11/28 05:16:14;;;;;;;20.83;16.25;;;10.90;1.00;;;;;;5008214;28;20040;-62
2022/11/28 05:18:39;;;;;;;17.85;15.15;;;10.80;1.00;;;;;;5014389;28;20533;-62
2022/11/28 05:21:07;;;;;;;19.52;16.13;;;10.70;1.00;;;;;;5014488;28;20100;-62
2022/11/28 05:23:37;;;;;;;18.10;15.77;;;10.80;1.00;;;;;;5022333;28;20041;-61
2022/11/28 05:26:07;;;;;;;18.25;16.30;;;10.80;1.00;;;;;;5024050;28;20137;-61
2022/11/28 05:28:33;;;;;;;18.48;14.98;;;10.70;1.00;;;;;;5018893;28;20025;-61
2022/11/28 05:31:00;;;;;;;18.75;15.52;;;10.80;1.00;;;;;;5015252;28;20030;-61
2022/11/28 05:33:27;;;;;;;16.70;14.77;;;10.70;1.00;;;;;;5024525;28;20033;-62
2022/11/28 05:35:53;;;;;;;20.15;15.98;;;10.80;1.00;;;;;;5027333;28;20025;-62
2022/11/28 05:38:19;;;;;;;21.95;15.25;;;10.60;1.00;;;;;;5014242;28;20056;-61
2022/11/28 05:40:44;;;;;;;18.88;15.40;;;10.50;1.00;;;;;;5011727;28;20026;-62
2022/11/28 05:43:10;;;;;;;18.02;14.73;;;10.60;1.00;;;;;;5023865;28;20506;-62
2022/11/28 05:45:43;;;;;;;16.67;14.40;;;10.60;1.00;;;;;;5021870;28;20068;-62
2022/11/28 05:48:08;;;;;;;17.77;15.48;;;10.60;1.00;;;;;;5012967;28;20049;-61
2022/11/28 05:50:34;;;;;;;16.88;14.45;;;10.60;1.00;;;;;;5013861;28;20392;-62
2022/11/28 05:53:00;;;;;;;18.55;15.00;;;10.60;1.00;;;;;;5017998;28;20026;-61
2022/11/28 05:55:25;;;;;;;14.73;13.07;;;10.70;1.00;;;;;;5013152;28;20033;-61
2022/11/28 05:57:52;;;;;;;19.65;14.27;;;10.60;1.00;;;;;;5019370;28;20040;-62
2022/11/28 06:00:19;;;;;;;16.80;13.05;;;10.40;1.00;;;;;;5022918;28;20028;-61
2022/11/28 06:02:44;;;;;;;16.50;14.18;;;10.50;1.00;;;;;;5020447;28;20045;-62
2022/11/28 06:05:10;;;;;;;15.15;13.48;;;10.40;1.00;;;;;;5013753;28;20022;-61
2022/11/28 06:07:36;;;;;;;17.33;13.50;;;10.30;1.00;;;;;;5021875;28;20132;-62
2022/11/28 06:10:01;;;;;;;16.67;13.63;;;10.40;1.00;;;;;;5018223;28;20113;-61
2022/11/28 06:12:27;;;;;;;15.38;12.80;;;10.30;1.00;;;;;;5012696;28;20024;-62
2022/11/28 06:14:52;;;;;;;17.45;12.80;;;10.30;1.00;;;;;;5011996;28;20498;-61
2022/11/28 06:17:18;;;;;;;17.65;12.57;;;10.40;1.00;;;;;;5014024;28;20022;-62
2022/11/28 06:19:43;;;;;;;14.98;11.63;;;10.10;1.00;;;;;;5011949;28;20345;-62
2022/11/28 06:22:09;;;;;;;15.70;12.00;;;10.30;1.00;;;;;;5019899;28;20053;-62
2022/11/28 06:24:35;;;;;;;13.48;11.68;;;10.40;1.00;;;;;;5024742;28;20423;-62
2022/11/28 06:27:00;;;;;;;14.35;11.00;;;10.40;1.00;;;;;;5012093;28;20598;-61
2022/11/28 06:29:26;;;;;;;18.42;11.60;;;10.40;1.00;;;;;;5013073;28;20026;-61
2022/11/28 06:31:51;;;;;;;15.68;10.57;;;10.50;1.00;;;;;;5013437;28;20471;-61
2022/11/28 06:34:17;;;;;;;14.18;10.30;;;10.50;1.00;;;;;;5016566;28;20021;-61
2022/11/28 06:36:44;;;;;;;13.95;11.40;;;10.40;1.00;;;;;;5029697;28;20053;-61
2022/11/28 06:39:14;;;;;;;14.43;11.13;;;10.50;1.00;;;;;;5013536;28;20067;-61
2022/11/28 06:41:40;;;;;;;16.95;12.10;;;10.50;1.00;;;;;;5003852;28;20022;-61
2022/11/28 06:44:06;;;;;;;16.63;12.13;;;10.50;1.00;;;;;;5014858;28;20053;-61
2022/11/28 06:46:31;;;;;;;14.32;11.20;;;10.50;1.00;;;;;;5014638;28;20467;-61
2022/11/28 06:48:57;;;;;;;16.30;11.98;;;10.50;1.00;;;;;;5013005;28;20112;-62
2022/11/28 06:51:23;;;;;;;14.25;10.77;;;10.50;1.00;;;;;;5010381;28;20034;-61
2022/11/28 06:53:49;;;;;;;15.38;11.88;;;10.50;1.00;;;;;;5010783;28;20021;-62
2022/11/28 06:56:17;;;;;;;15.50;12.05;;;10.60;1.00;;;;;;5011884;28;20068;-62
2022/11/28 06:58:44;;;;;;;12.88;11.25;;;10.60;1.00;;;;;;5014480;28;20029;-62
2022/11/28 07:01:13;;;;;;;14.93;11.38;;;10.60;1.00;;;;;;5011997;28;20034;-62
2022/11/28 07:03:39;;;;;;;14.88;10.60;;;10.50;1.00;;;;;;5019183;28;20072;-62
2022/11/28 07:06:06;;;;;;;13.70;11.50;;;10.50;1.00;;;;;;5014424;28;20022;-61
2022/11/28 07:08:33;;;;;;;12.88;11.07;;;10.50;1.00;;;;;;5010793;28;20021;-62
2022/11/28 07:11:13;;;;;;;14.05;10.25;;;10.60;1.00;;;;;;5027874;28;20029;-61
2022/11/28 07:13:40;;;;;;;14.13;11.13;;;10.50;1.00;;;;;;5011258;28;20030;-62
2022/11/28 07:16:07;;;;;;;12.90;10.80;;;10.60;1.00;;;;;;5016811;28;20463;-62
2022/11/28 07:18:33;;;;;;;14.30;10.90;;;10.60;1.00;;;;;;5013207;28;20136;-62
2022/11/28 07:20:59;;;;;;;13.73;10.98;;;10.60;1.00;;;;;;5004846;28;20132;-60
2022/11/28 07:23:25;;;;;;;15.10;11.18;;;10.50;1.00;;;;;;5015673;28;20391;-60
2022/11/28 07:25:57;;;;;;;16.40;11.77;;;10.50;1.00;;;;;;5010970;28;20026;-60
2022/11/28 07:28:23;;;;;;;13.38;10.10;;;10.50;1.00;;;;;;5022941;28;20029;-60
2022/11/28 07:30:48;;;;;;;13.75;10.82;;;10.50;1.00;;;;;;5012203;28;20026;-60
2022/11/28 07:33:14;;;;;;;14.88;10.73;;;10.50;1.00;;;;;;5012595;28;20044;-61
2022/11/28 07:35:40;;;;;;;15.02;10.73;;;10.50;1.00;;;;;;5014986;28;20462;-61
2022/11/28 07:38:05;;;;;;;13.18;10.68;;;10.60;1.00;;;;;;5014684;28;20132;-60
2022/11/28 07:40:31;;;;;;;13.07;10.68;;;10.50;1.00;;;;;;5013292;28;20134;-60
2022/11/28 07:42:57;;;;;;;16.27;10.93;;;10.50;1.00;;;;;;5006564;28;20041;-60
2022/11/28 07:45:22;;;;;;;16.60;10.75;;;10.60;1.00;;;;;;5005440;28;20034;-60
2022/11/28 07:47:48;;;;;;;12.32;10.45;;;10.60;1.00;;;;;;5006842;28;20176;-61
2022/11/28 07:50:14;;;;;;;11.40;10.20;;;10.60;1.00;;;;;;5033154;28;20043;-60
2022/11/28 07:52:39;;;;;;;12.57;10.88;;;10.70;1.00;;;;;;5009573;28;20037;-61
2022/11/28 07:55:05;;;;;;;12.98;9.88;;;10.60;1.00;;;;;;5010399;28;20034;-61
2022/11/28 07:57:31;;;;;;;11.80;9.07;;;10.50;1.00;;;;;;5019748;28;20015;-61
2022/11/28 07:59:57;;;;;;;11.18;9.02;;;10.60;1.00;;;;;;5015767;28;20042;-61
2022/11/28 08:02:22;;;;;;;11.93;10.00;;;10.60;1.00;;;;;;5012249;28;20033;-61
2022/11/28 08:04:48;;;;;;;11.30;9.25;;;10.70;1.00;;;;;;5008547;28;20055;-60
2022/11/28 08:07:13;;;;;;;14.63;9.13;;;10.70;1.00;;;;;;5008875;28;20026;-63
2022/11/28 08:09:39;;;;;;;11.10;9.27;;;10.70;1.00;;;;;;5009458;28;20038;-64
2022/11/28 08:12:05;;;;;;;11.00;9.35;;;10.60;1.00;;;;;;5006739;28;20031;-66
2022/11/28 08:14:30;;;;;;;13.30;9.18;;;10.70;1.00;;;;;;5016237;28;20414;-66
2022/11/28 08:16:56;;;;;;;12.65;8.93;;;10.90;1.00;;;;;;5022431;28;20037;-63
2022/11/28 08:19:21;;;;;;;11.88;9.13;;;10.80;1.00;;;;;;5017545;28;20076;-79
2022/11/28 08:21:47;;;;;;;12.90;9.68;;;10.80;1.00;;;;;;5023440;28;20045;-79
2022/11/28 08:24:13;;;;;;;11.43;9.35;;;10.80;1.00;;;;;;5012246;28;20099;-62
2022/11/28 08:26:39;;;;;;;19.48;9.43;;;10.80;1.00;;;;;;5017763;28;20437;-68
2022/11/28 08:29:05;;;;;;;12.60;10.15;;;10.80;1.00;;;;;;5020825;28;20108;-69
2022/11/28 08:31:34;;;;;;;13.27;8.90;;;10.80;1.00;;;;;;5016421;28;20041;-75
2022/11/28 08:34:02;;;;;;;12.95;9.32;;;10.90;1.00;;;;;;5016463;28;20034;-72
2022/11/28 08:36:28;;;;;;;11.55;9.15;;;10.90;1.00;;;;;;5016673;28;20494;-66
2022/11/28 08:38:54;;;;;;;12.55;9.20;;;11.00;1.00;;;;;;5013893;28;20076;-66
2022/11/28 08:41:21;;;;;;;12.20;8.80;;;11.00;1.00;;;;;;5014022;28;20338;-67
2022/11/28 08:43:48;;;;;;;10.43;8.77;;;11.00;1.00;;;;;;5016053;28;20052;-72
2022/11/28 08:46:19;;;;;;;11.23;9.18;;;10.90;1.00;;;;;;5010414;28;20590;-68
2022/11/28 08:48:46;;;;;;;13.32;9.27;;;11.00;1.00;;;;;;5017522;28;20041;-73
2022/11/28 08:51:13;;;;;;;11.93;9.20;;;11.00;1.00;;;;;;5015136;28;20033;-69
2022/11/28 08:53:40;;;;;;;13.93;10.10;;;11.10;1.00;;;;;;5016648;28;20178;-74
2022/11/28 08:56:05;;;;;;;12.95;9.52;;;11.10;1.00;;;;;;5011439;28;20029;-63
2022/11/28 08:58:31;;;;;;;16.20;9.63;;;11.00;1.00;;;;;;5015587;28;20044;-70
2022/11/28 09:00:57;;;;;;;15.77;9.55;;;11.10;1.00;;;;;;5018299;28;20120;-63
2022/11/28 09:03:22;;;;;;;19.60;9.80;;;11.00;1.00;;;;;;5013079;28;20498;-72
2022/11/28 09:05:48;;;;;;;12.43;9.82;;;11.10;1.00;;;;;;5007372;28;20036;-62
2022/11/28 09:08:15;;;;;;;12.63;9.70;;;11.00;1.00;;;;;;5016268;28;20479;-75
2022/11/28 09:10:43;;;;;;;14.65;10.02;;;11.00;1.00;;;;;;5012197;28;20057;-70
2022/11/28 09:13:10;;;;;;;12.60;9.98;;;11.00;1.00;;;;;;5010680;28;20053;-72
2022/11/28 09:15:42;;;;;;;16.83;11.38;;;10.90;1.00;;;;;;5011573;28;20038;-71
2022/11/28 09:18:10;;;;;;;13.93;10.70;;;11.00;1.00;;;;;;5022653;28;20033;-72
2022/11/28 09:20:35;;;;;;;16.17;12.38;;;11.00;1.00;;;;;;5011453;28;20516;-66
2022/11/28 09:23:01;;;;;;;15.75;11.52;;;11.00;1.00;;;;;;5013535;28;20076;-68
2022/11/28 09:25:27;;;;;;;13.00;10.70;;;11.00;1.00;;;;;;5018921;28;20435;-71
2022/11/28 09:27:52;;;;;;;17.73;12.10;;;11.10;1.00;;;;;;5011210;28;20038;-71
2022/11/28 09:30:21;;;;;;;15.20;11.57;;;11.10;1.00;;;;;;5024170;28;20488;-65
2022/11/28 09:32:48;;;;;;;15.65;11.23;;;11.10;1.00;;;;;;5017401;28;20480;-69
2022/11/28 09:35:14;;;;;;;14.80;10.80;;;10.90;1.00;;;;;;5025678;28;20040;-74
2022/11/28 09:37:39;;;;;;;14.25;10.68;;;11.10;1.00;;;;;;5011833;28;20030;-68
2022/11/28 09:40:06;;;;;;;16.13;10.85;;;11.00;1.00;;;;;;5012834;28;20041;-70
2022/11/28 09:42:36;;;;;;;16.13;11.07;;;11.10;1.00;;;;;;5013057;28;20062;-67
2022/11/28 09:45:05;;;;;;;20.23;12.02;;;11.00;1.00;;;;;;5009677;28;20471;-67
2022/11/28 09:47:35;;;;;;;14.75;10.43;;;11.10;1.00;;;;;;5012748;28;20133;-67
2022/11/28 09:50:15;;;;;;;12.25;10.18;;;11.20;1.00;;;;;;5023123;28;20116;-65
2022/11/28 09:53:16;;;;;;;16.80;11.90;;;11.20;1.00;;;;;;5017982;28;20152;-65
2022/11/28 09:55:46;;;;;;;17.60;12.80;;;11.20;1.00;;;;;;5014835;28;20444;-65
2022/11/28 09:58:19;;;;;;;16.30;12.55;;;11.20;1.00;;;;;;5010930;28;20022;-70
2022/11/28 10:00:52;;;;;;;13.77;11.00;;;11.20;1.00;;;;;;5019080;28;20088;-73
2022/11/28 10:03:32;;;;;;;13.60;12.15;;;11.20;1.00;;;;;;5010262;28;20029;-65
2022/11/28 10:06:08;;;;;;;16.50;11.50;;;11.10;1.00;;;;;;5008306;28;20034;-67
2022/11/28 10:08:51;;;;;;;20.00;13.25;;;11.20;1.00;;;;;;5030047;28;20033;-62
2022/11/28 10:11:35;;;;;;;15.85;11.88;;;11.30;1.00;;;;;;5007698;28;20436;-63
2022/11/28 10:14:41;;;;;;;16.27;12.57;;;11.30;1.00;;;;;;5015535;28;20030;-62
2022/11/28 10:17:16;;;;;;;;;;;11.20;1.00;;;;;;5019729;28;20051;-68
2022/11/28 10:19:45;;;;;;;;;;;11.20;1.00;;;;;;5020942;28;19909;-65
2022/11/28 10:22:18;;;;;;;16.38;12.70;;;11.20;1.00;;;;;;5018766;28;19909;-64
2022/11/28 10:24:52;;;;;;;21.50;13.20;;;11.10;1.00;;;;;;5015322;28;20048;-69
2022/11/28 10:27:19;;;;;;;17.70;13.55;;;11.30;1.00;;;;;;5010621;28;20033;-63
2022/11/28 10:29:56;;;;;;;15.18;13.57;;;11.20;1.00;;;;;;5012269;28;20026;-66
2022/11/28 10:32:31;;;;;;;17.77;13.57;;;11.40;1.00;;;;;;5017923;28;20045;-75
2022/11/28 10:35:03;;;;;;;18.13;13.48;;;11.40;1.00;;;;;;5026873;28;20123;-73
2022/11/28 10:37:30;;;;;;;18.73;14.43;;;11.50;1.00;;;;;;5022628;28;20368;-73
2022/11/28 10:40:14;;;;;;;16.45;12.60;;;11.60;1.00;;;;;;5012004;28;20092;-77
2022/11/28 10:42:48;;;;;;;12.65;10.68;;;11.50;1.00;;;;;;5019017;28;20369;-69
2022/11/28 10:45:26;;;;;;;12.52;9.05;;;11.40;1.00;;;;;;5028276;28;20029;-70
2022/11/28 10:47:57;;;;;;;11.70;9.02;;;11.70;1.00;;;;;;5016207;28;20084;-74
2022/11/28 10:50:59;;;;;;;9.80;8.63;;;11.80;1.00;;;;;;5020784;28;20108;-69
2022/11/28 10:53:49;;;;;;;11.70;8.45;;;11.80;1.00;;;;;;5012097;28;20030;-70
2022/11/28 10:56:33;;;;;;;11.10;9.18;;;11.70;1.00;;;;;;5015730;28;20037;-68
2022/11/28 10:59:18;;;;;;;11.40;9.45;;;11.90;1.00;;;;;;5011916;28;20026;-67
2022/11/28 11:01:43;;;;;;;13.25;8.93;;;11.90;1.00;;;;;;5010967;28;20100;-60
2022/11/28 11:04:20;;;;;;;11.77;8.18;;;12.00;1.00;;;;;;5023874;28;20034;-60
2022/11/28 11:07:10;;;;;;;9.35;7.78;;;12.00;1.00;;;;;;5014832;28;20040;-62
2022/11/28 11:09:36;;;;;;;9.98;8.25;;;11.90;1.00;;;;;;5009762;28;20026;-62
2022/11/28 11:12:05;;;;;;;14.32;9.15;;;11.90;1.00;;;;;;5025068;28;20025;-62
2022/11/28 11:14:38;;;;;;;10.52;8.25;;;11.90;1.00;;;;;;5010543;28;20140;-65
2022/11/28 11:17:04;;;;;;;9.73;7.68;;;12.00;1.00;;;;;;5015254;28;20041;-66
2022/11/28 11:19:37;;;;;;;10.77;8.30;;;11.80;1.00;;;;;;5012579;28;20030;-66
2022/11/28 11:22:11;;;;;;;14.55;9.93;;;11.90;1.00;;;;;;5021055;28;20033;-62
2022/11/28 11:24:37;;;;;;;12.93;8.23;;;12.00;1.00;;;;;;5010108;28;20042;-69
2022/11/28 11:27:23;;;;;;;13.90;9.00;;;12.10;1.00;;;;;;5015624;28;20026;-61
2022/11/28 11:29:50;;;;;;;12.63;8.60;;;12.00;1.00;;;;;;5010737;28;20045;-63
2022/11/28 11:32:25;;;;;;;9.00;8.05;;;12.10;1.00;;;;;;5010787;28;20121;-63
2022/11/28 11:34:51;;;;;;;13.23;8.90;;;12.10;1.00;;;;;;5018569;28;20025;-62
2022/11/28 11:37:22;;;;;;;13.05;8.35;;;12.20;1.00;;;;;;5024379;28;20038;-66
2022/11/28 11:39:51;;;;;;;13.10;9.45;;;12.10;1.00;;;;;;5011157;28;20038;-70
2022/11/28 11:42:22;;;;;;;11.40;8.32;;;12.10;1.00;;;;;;5024959;28;20379;-69
2022/11/28 11:44:48;;;;;;;11.93;8.43;;;12.10;1.00;;;;;;5020192;28;20025;-69
2022/11/28 11:47:14;;;;;;;9.98;8.15;;;12.10;1.00;;;;;;5019452;28;20049;-69
2022/11/28 11:49:47;;;;;;;12.27;8.45;;;12.20;1.00;;;;;;5027783;28;20116;-69
2022/11/28 11:52:12;;;;;;;12.80;9.35;;;12.10;1.00;;;;;;5025111;28;20018;-69
2022/11/28 11:54:53;;;;;;;12.23;9.05;;;12.10;1.00;;;;;;5024365;28;20076;-70
2022/11/28 11:57:34;;;;;;;25.42;9.98;;;11.90;1.00;;;;;;5020490;28;20091;-62
2022/11/28 12:00:13;;;;;;;12.35;9.13;;;12.00;1.00;;;;;;5010865;28;20480;-63
2022/11/28 12:02:59;;;;;;;11.20;9.48;;;12.00;1.00;;;;;;5011598;28;20041;-64
2022/11/28 12:05:45;;;;;;;10.82;7.88;;;12.00;1.00;;;;;;5015869;28;20018;-65
2022/11/28 12:08:24;;;;;;;11.70;8.45;;;12.10;1.00;;;;;;5007247;28;20021;-65
2022/11/28 12:11:00;;;;;;;9.70;8.35;;;11.90;1.00;;;;;;5006784;28;20479;-64
2022/11/28 12:13:26;;;;;;;14.00;8.60;;;12.10;1.00;;;;;;5008055;28;20483;-65
2022/11/28 12:16:16;;;;;;;17.75;10.32;;;12.00;1.00;;;;;;5008846;28;20081;-65
2022/11/28 12:18:58;;;;;;;10.98;9.07;;;12.10;1.00;;;;;;5010459;28;20381;-65
2022/11/28 12:21:59;;;;;;;10.80;8.27;;;12.10;1.00;;;;;;5014288;28;20057;-65
2022/11/28 12:24:38;;;;;;;11.15;8.70;;;12.10;1.00;;;;;;5007741;28;20411;-66
2022/11/28 12:27:26;;;;;;;11.10;8.65;;;12.10;1.00;;;;;;5011429;28;20030;-66
2022/11/28 12:30:21;;;;;;;11.27;9.18;;;12.10;1.00;;;;;;5019042;28;20026;-66
2022/11/28 12:32:56;;;;;;;12.48;8.77;;;12.00;1.00;;;;;;5000006;28;20117;-65
2022/11/28 12:35:42;;;;;;;18.08;9.35;;;12.10;1.00;;;;;;5007286;28;20034;-65
2022/11/28 12:38:20;;;;;;;10.05;8.02;;;12.10;1.00;;;;;;5011253;28;20084;-65
2022/11/28 12:41:01;;;;;;;9.70;8.70;;;11.80;1.00;;;;;;5012163;28;20049;-66
2022/11/28 12:43:35;;;;;;;14.15;9.63;;;11.90;1.00;;;;;;5014556;28;20036;-65
2022/11/28 12:46:07;;;;;;;;;;;11.70;1.00;;;;;;5002753;28;20148;-66
2022/11/28 12:49:02;;;;;;;14.20;8.80;;;11.90;1.00;;;;;;5016654;28;20028;-65
2022/11/28 12:55:37;;;;;;;13.68;8.80;;;12.10;1.00;;;;;;4998937;28;20030;-70
2022/11/28 12:58:13;;;;;;;10.35;8.15;;;12.10;1.00;;;;;;5006459;28;20046;-65
2022/11/28 13:00:54;;;;;;;10.50;8.43;;;12.10;1.00;;;;;;5015020;28;20022;-65
2022/11/28 13:03:45;;;;;;;10.07;7.50;;;12.10;1.00;;;;;;5026429;28;20113;-72
2022/11/28 13:06:40;;;;;;;10.73;8.70;;;12.10;1.00;;;;;;5027640;28;20030;-69
2022/11/28 13:09:28;;;;;;;12.32;8.55;;;12.10;1.00;;;;;;5032092;28;20025;-73
2022/11/28 13:12:00;;;;;;;11.57;9.13;;;12.20;1.00;;;;;;5020604;28;20037;-72